Time;durP1;ratioP1;P1;durP2;ratioP2;P2;SDS_P1;SDS_P2;PMS_P1;PMS_P2;Temp;Humidity;BMP_temperature;BMP_pressure;BME280_temperature;BME280_humidity;BME280_pressure;Samples;Min_cycle;Max_cycle;Signal;HPM_P1;HPM_P2
2022/01/05 00:01:56;;;;;;;36.33;18.90;;;;;;;;;;4808841;29;35969;-68
2022/01/05 00:04:24;;;;;;;35.83;19.27;;;;;;;;;;4808828;29;32346;-69
2022/01/05 00:06:54;;;;;;;34.42;19.00;;;;;;;;;;4809293;29;32847;-69
2022/01/05 00:09:22;;;;;;;30.98;17.85;;;;;;;;;;4809753;29;32483;-70
2022/01/05 00:11:50;;;;;;;40.20;19.08;;;;;;;;;;4811579;29;34963;-68
2022/01/05 00:14:18;;;;;;;36.50;19.20;;;;;;;;;;4811085;29;32509;-68
2022/01/05 00:16:46;;;;;;;34.05;18.55;;;;;;;;;;4810809;29;32655;-69
2022/01/05 00:19:14;;;;;;;36.08;18.20;;;;;;;;;;4802416;29;32515;-69
2022/01/05 00:21:42;;;;;;;37.08;17.50;;;;;;;;;;4793108;29;32452;-69
2022/01/05 00:24:11;;;;;;;33.33;17.92;;;;;;;;;;4793113;29;35294;-69
2022/01/05 00:26:39;;;;;;;35.58;18.17;;;;;;;;;;4792116;29;32746;-68
2022/01/05 00:29:08;;;;;;;27.20;18.33;;;;;;;;;;4792892;29;32423;-70
2022/01/05 00:31:36;;;;;;;33.70;18.23;;;;;;;;;;4792981;29;32153;-68
2022/01/05 00:34:04;;;;;;;37.15;19.02;;;;;;;;;;4791340;29;34529;-68
2022/01/05 00:36:32;;;;;;;32.72;17.92;;;;;;;;;;4789451;29;32535;-69
2022/01/05 00:39:00;;;;;;;37.28;18.17;;;;;;;;;;4787553;29;32710;-68
2022/01/05 00:41:29;;;;;;;35.33;18.30;;;;;;;;;;4799683;29;32703;-67
2022/01/05 00:43:57;;;;;;;38.53;18.33;;;;;;;;;;4791539;29;32501;-70
2022/01/05 00:46:25;;;;;;;38.50;18.98;;;;;;;;;;4816190;29;34123;-69
2022/01/05 00:48:53;;;;;;;35.67;18.80;;;;;;;;;;4828175;29;32623;-68
2022/01/05 00:51:21;;;;;;;31.95;18.30;;;;;;;;;;4827840;29;32426;-69
2022/01/05 00:53:49;;;;;;;32.00;18.23;;;;;;;;;;4827877;29;32388;-68
2022/01/05 00:56:17;;;;;;;39.38;18.50;;;;;;;;;;4828155;29;34014;-68
2022/01/05 00:58:47;;;;;;;33.45;18.75;;;;;;;;;;4805502;29;32783;-70
2022/01/05 01:01:15;;;;;;;37.25;18.77;;;;;;;;;;4795064;29;32647;-68
2022/01/05 01:03:43;;;;;;;28.73;17.52;;;;;;;;;;4795184;29;32400;-69
2022/01/05 01:06:11;;;;;;;35.60;19.23;;;;;;;;;;4794858;29;32271;-70
2022/01/05 01:08:39;;;;;;;30.27;17.73;;;;;;;;;;4795530;29;34029;-70
2022/01/05 01:11:07;;;;;;;36.03;18.35;;;;;;;;;;4794897;29;32353;-69
2022/01/05 01:13:35;;;;;;;31.92;18.63;;;;;;;;;;4795174;29;32354;-68
2022/01/05 01:16:05;;;;;;;34.20;18.02;;;;;;;;;;4795774;29;32694;-70
2022/01/05 01:18:35;;;;;;;36.22;18.63;;;;;;;;;;4795232;29;34623;-70
2022/01/05 01:21:03;;;;;;;31.70;17.80;;;;;;;;;;4795608;29;32294;-68
2022/01/05 01:23:31;;;;;;;35.55;18.05;;;;;;;;;;4795591;29;32310;-68
2022/01/05 01:25:59;;;;;;;33.63;18.15;;;;;;;;;;4794718;29;32410;-70
2022/01/05 01:28:27;;;;;;;30.70;17.08;;;;;;;;;;4795167;29;32421;-70
2022/01/05 01:30:55;;;;;;;33.83;19.02;;;;;;;;;;4793990;29;34613;-69
2022/01/05 01:33:25;;;;;;;34.03;17.58;;;;;;;;;;4800463;29;32415;-69
2022/01/05 01:35:53;;;;;;;37.88;17.75;;;;;;;;;;4814013;29;32308;-69
2022/01/05 01:38:21;;;;;;;35.58;18.35;;;;;;;;;;4813037;29;32322;-68
2022/01/05 01:40:49;;;;;;;34.72;18.25;;;;;;;;;;4812724;29;33909;-68
2022/01/05 01:43:17;;;;;;;30.85;17.63;;;;;;;;;;4813134;29;32429;-69
2022/01/05 01:45:45;;;;;;;28.85;17.40;;;;;;;;;;4812855;29;32434;-69
2022/01/05 01:48:14;;;;;;;31.70;17.90;;;;;;;;;;4813108;29;32661;-68
2022/01/05 01:50:43;;;;;;;38.35;19.13;;;;;;;;;;4813112;29;32480;-68
2022/01/05 01:53:12;;;;;;;30.10;18.10;;;;;;;;;;4812716;29;35526;-68
2022/01/05 01:55:41;;;;;;;36.17;18.50;;;;;;;;;;4812703;29;32437;-68
2022/01/05 01:58:09;;;;;;;29.95;18.08;;;;;;;;;;4812870;29;32500;-67
2022/01/05 02:00:37;;;;;;;30.45;17.15;;;;;;;;;;4813050;29;32314;-71
2022/01/05 02:03:06;;;;;;;32.28;17.60;;;;;;;;;;4813063;29;33990;-68
2022/01/05 02:05:34;;;;;;;41.15;18.67;;;;;;;;;;4813305;29;32607;-69
2022/01/05 02:08:03;;;;;;;33.40;18.92;;;;;;;;;;4812147;29;32427;-69
2022/01/05 02:10:31;;;;;;;28.42;17.77;;;;;;;;;;4812266;29;32436;-71
2022/01/05 02:13:00;;;;;;;32.90;17.40;;;;;;;;;;4812691;29;32424;-70
2022/01/05 02:15:28;;;;;;;31.33;17.67;;;;;;;;;;4812719;29;34026;-68
2022/01/05 02:18:09;;;;;;;29.30;18.13;;;;;;;;;;4812201;29;32444;-69
2022/01/05 02:20:37;;;;;;;32.35;18.10;;;;;;;;;;4812784;29;32318;-69
2022/01/05 02:23:07;;;;;;;35.70;18.42;;;;;;;;;;4813141;29;32389;-71
2022/01/05 02:25:35;;;;;;;31.55;16.75;;;;;;;;;;4811932;29;33961;-70
2022/01/05 02:28:03;;;;;;;30.80;16.92;;;;;;;;;;4811861;29;32759;-68
2022/01/05 02:30:32;;;;;;;28.50;16.88;;;;;;;;;;4812683;29;32563;-68
2022/01/05 02:33:01;;;;;;;30.10;16.80;;;;;;;;;;4796078;29;32473;-68
2022/01/05 02:35:29;;;;;;;26.67;16.83;;;;;;;;;;4812840;29;32428;-68
2022/01/05 02:37:57;;;;;;;31.15;18.20;;;;;;;;;;4812159;29;34029;-67
2022/01/05 02:40:27;;;;;;;32.17;16.63;;;;;;;;;;4793270;29;32540;-67
2022/01/05 02:42:57;;;;;;;30.65;16.55;;;;;;;;;;4795068;29;32446;-69
2022/01/05 02:45:26;;;;;;;29.15;16.17;;;;;;;;;;4812606;29;32385;-68
2022/01/05 02:47:55;;;;;;;33.38;16.13;;;;;;;;;;4812742;29;35510;-67
2022/01/05 02:50:23;;;;;;;28.40;16.35;;;;;;;;;;4811602;29;32427;-70
2022/01/05 02:52:51;;;;;;;30.50;16.45;;;;;;;;;;4799979;29;32492;-67
2022/01/05 02:55:19;;;;;;;33.20;16.08;;;;;;;;;;4793778;29;32463;-68
2022/01/05 02:57:49;;;;;;;34.50;17.20;;;;;;;;;;4794125;29;32627;-69
2022/01/05 03:00:18;;;;;;;27.27;17.33;;;;;;;;;;4793516;29;35500;-69
2022/01/05 03:02:46;;;;;;;26.65;16.58;;;;;;;;;;4793714;29;32583;-69
2022/01/05 03:05:15;;;;;;;37.15;17.40;;;;;;;;;;4802783;29;32438;-69
2022/01/05 03:07:43;;;;;;;32.28;17.58;;;;;;;;;;4807322;29;32458;-68
2022/01/05 03:10:13;;;;;;;32.47;18.08;;;;;;;;;;4793474;29;34621;-70
2022/01/05 03:12:44;;;;;;;34.35;18.80;;;;;;;;;;4793642;29;32376;-68
2022/01/05 03:15:14;;;;;;;35.65;18.27;;;;;;;;;;4793572;29;32351;-69
2022/01/05 03:17:42;;;;;;;41.47;20.58;;;;;;;;;;4793461;29;32523;-70
2022/01/05 03:20:13;;;;;;;52.67;21.40;;;;;;;;;;4793303;29;32264;-70
2022/01/05 03:22:42;;;;;;;47.27;22.80;;;;;;;;;;4793857;29;34638;-68
2022/01/05 03:25:15;;;;;;;58.28;25.27;;;;;;;;;;4810233;29;32562;-68
2022/01/05 03:27:45;;;;;;;64.57;26.63;;;;;;;;;;4794680;29;32479;-71
2022/01/05 03:30:18;;;;;;;80.18;29.58;;;;;;;;;;4811909;29;32772;-69
2022/01/05 03:33:07;;;;;;;88.60;33.63;;;;;;;;;;4811645;29;35928;-68
2022/01/05 03:35:38;;;;;;;88.75;34.53;;;;;;;;;;4811607;29;32428;-68
2022/01/05 03:38:07;;;;;;;116.38;39.22;;;;;;;;;;4811435;29;32318;-67
2022/01/05 03:40:36;;;;;;;116.63;40.13;;;;;;;;;;4811717;29;32370;-66
2022/01/05 03:43:05;;;;;;;115.80;41.83;;;;;;;;;;4811947;29;32396;-68
2022/01/05 03:45:36;;;;;;;122.32;46.05;;;;;;;;;;4811347;29;34623;-70
2022/01/05 03:48:07;;;;;;;129.20;46.85;;;;;;;;;;4811731;29;32314;-68
2022/01/05 03:50:35;;;;;;;145.23;50.58;;;;;;;;;;4810947;29;32426;-69
2022/01/05 03:53:04;;;;;;;150.40;54.83;;;;;;;;;;4811654;29;32299;-68
2022/01/05 03:55:33;;;;;;;159.57;57.38;;;;;;;;;;4811313;29;34682;-66
2022/01/05 03:58:01;;;;;;;162.27;59.67;;;;;;;;;;4811226;29;32597;-68
2022/01/05 04:00:30;;;;;;;158.65;60.38;;;;;;;;;;4811569;29;32421;-69
2022/01/05 04:03:00;;;;;;;159.55;57.30;;;;;;;;;;4811660;29;32287;-70
2022/01/05 04:05:29;;;;;;;161.02;57.83;;;;;;;;;;4811683;29;32456;-68
2022/01/05 04:07:57;;;;;;;159.98;58.80;;;;;;;;;;4811154;29;36060;-68
2022/01/05 04:10:26;;;;;;;157.65;55.78;;;;;;;;;;4811358;29;32496;-69
2022/01/05 04:12:54;;;;;;;150.10;54.50;;;;;;;;;;4811053;29;32507;-68
2022/01/05 04:15:23;;;;;;;152.77;53.50;;;;;;;;;;4811468;29;32867;-71
2022/01/05 04:17:51;;;;;;;140.23;48.20;;;;;;;;;;4810646;29;34588;-70
2022/01/05 04:20:21;;;;;;;122.97;47.80;;;;;;;;;;4792510;29;32415;-70
2022/01/05 04:22:49;;;;;;;118.85;45.55;;;;;;;;;;4792801;29;32302;-69
2022/01/05 04:25:17;;;;;;;114.72;43.08;;;;;;;;;;4792838;29;32402;-70
2022/01/05 04:27:45;;;;;;;115.93;42.35;;;;;;;;;;4792274;29;32299;-68
2022/01/05 04:30:14;;;;;;;104.50;39.90;;;;;;;;;;4792366;29;34083;-68
2022/01/05 04:32:42;;;;;;;102.72;38.47;;;;;;;;;;4792091;29;32328;-69
2022/01/05 04:35:13;;;;;;;87.65;36.45;;;;;;;;;;4792826;29;32357;-69
2022/01/05 04:37:43;;;;;;;88.22;35.42;;;;;;;;;;4792894;29;32497;-69
2022/01/05 04:40:13;;;;;;;85.03;32.60;;;;;;;;;;4792835;29;34593;-71
2022/01/05 04:42:41;;;;;;;79.53;32.30;;;;;;;;;;4792421;29;32754;-69
2022/01/05 04:45:10;;;;;;;81.55;32.22;;;;;;;;;;4791183;29;32436;-69
2022/01/05 04:47:38;;;;;;;86.30;30.80;;;;;;;;;;4791463;29;32423;-69
2022/01/05 04:50:08;;;;;;;62.90;28.10;;;;;;;;;;4792868;29;32578;-69
2022/01/05 04:52:37;;;;;;;72.40;28.77;;;;;;;;;;4792543;29;35470;-71
2022/01/05 04:55:08;;;;;;;65.93;27.70;;;;;;;;;;4792531;29;32317;-67
2022/01/05 04:57:36;;;;;;;71.63;28.45;;;;;;;;;;4791439;29;32348;-69
2022/01/05 05:00:06;;;;;;;67.82;26.83;;;;;;;;;;4792549;29;32263;-67
2022/01/05 05:02:34;;;;;;;69.90;27.65;;;;;;;;;;4791866;29;34254;-68
2022/01/05 05:05:02;;;;;;;63.47;25.45;;;;;;;;;;4792184;29;32606;-68
2022/01/05 05:07:30;;;;;;;64.57;26.38;;;;;;;;;;4791958;29;32359;-68
2022/01/05 05:09:58;;;;;;;66.22;25.50;;;;;;;;;;4790707;29;32481;-68
2022/01/05 05:12:28;;;;;;;72.90;28.73;;;;;;;;;;4792136;29;32242;-69
2022/01/05 05:14:56;;;;;;;67.05;26.38;;;;;;;;;;4792462;29;34031;-69
2022/01/05 05:17:24;;;;;;;73.07;29.05;;;;;;;;;;4792155;29;32540;-68
2022/01/05 05:19:52;;;;;;;76.75;28.13;;;;;;;;;;4790776;29;32447;-68
2022/01/05 05:22:20;;;;;;;80.75;28.45;;;;;;;;;;4808485;29;32447;-67
2022/01/05 05:24:48;;;;;;;87.28;32.38;;;;;;;;;;4809550;29;33931;-68
2022/01/05 05:27:16;;;;;;;83.30;31.20;;;;;;;;;;4810259;29;32401;-66
2022/01/05 05:29:46;;;;;;;86.68;33.83;;;;;;;;;;4810134;29;32392;-69
2022/01/05 05:32:14;;;;;;;91.32;37.28;;;;;;;;;;4810044;29;32448;-70
2022/01/05 05:34:42;;;;;;;99.60;37.75;;;;;;;;;;4809142;29;32791;-68
2022/01/05 05:37:10;;;;;;;104.20;40.40;;;;;;;;;;4810127;29;33993;-71
2022/01/05 05:39:38;;;;;;;118.70;40.10;;;;;;;;;;4793019;29;32743;-70
2022/01/05 05:42:07;;;;;;;107.63;42.00;;;;;;;;;;4809608;29;32215;-72
2022/01/05 05:44:35;;;;;;;106.43;41.97;;;;;;;;;;4806741;29;32235;-69
2022/01/05 05:47:06;;;;;;;111.32;44.58;;;;;;;;;;4811539;29;35531;-69
2022/01/05 05:49:35;;;;;;;116.10;42.95;;;;;;;;;;4811865;29;32349;-68
2022/01/05 05:52:03;;;;;;;105.25;43.17;;;;;;;;;;4812144;29;32444;-69
2022/01/05 05:54:31;;;;;;;109.55;45.55;;;;;;;;;;4811402;29;32511;-67
2022/01/05 05:56:59;;;;;;;108.60;43.60;;;;;;;;;;4810032;29;32572;-68
2022/01/05 05:59:27;;;;;;;101.28;43.83;;;;;;;;;;4807205;29;34028;-68
2022/01/05 06:01:55;;;;;;;93.63;42.40;;;;;;;;;;4802904;29;32535;-66
2022/01/05 06:04:25;;;;;;;90.97;41.33;;;;;;;;;;4803269;29;32199;-67
2022/01/05 06:06:53;;;;;;;100.90;39.22;;;;;;;;;;4804254;29;32429;-71
2022/01/05 06:09:21;;;;;;;88.78;37.75;;;;;;;;;;4802984;29;34026;-67
2022/01/05 06:11:49;;;;;;;81.60;36.10;;;;;;;;;;4801975;29;32620;-68
2022/01/05 06:14:17;;;;;;;72.95;30.90;;;;;;;;;;4804210;29;32515;-68
2022/01/05 06:16:45;;;;;;;71.03;29.60;;;;;;;;;;4802341;29;32443;-71
2022/01/05 06:19:13;;;;;;;65.90;28.08;;;;;;;;;;4801093;29;32234;-68
2022/01/05 06:21:44;;;;;;;59.90;25.98;;;;;;;;;;4801253;29;34633;-71
2022/01/05 06:24:12;;;;;;;58.60;27.77;;;;;;;;;;4804042;29;32892;-69
2022/01/05 06:26:40;;;;;;;55.05;25.73;;;;;;;;;;4802335;29;32542;-69
2022/01/05 06:29:08;;;;;;;47.70;23.77;;;;;;;;;;4798784;29;32254;-71
2022/01/05 06:31:36;;;;;;;56.83;24.23;;;;;;;;;;4806335;29;34543;-68
2022/01/05 06:34:04;;;;;;;49.75;25.17;;;;;;;;;;4802337;29;32571;-69
2022/01/05 06:36:32;;;;;;;52.90;24.98;;;;;;;;;;4803864;29;32303;-69
2022/01/05 06:39:03;;;;;;;53.45;25.42;;;;;;;;;;4806536;29;32326;-69
2022/01/05 06:41:31;;;;;;;49.17;24.30;;;;;;;;;;4809150;29;33074;-68
2022/01/05 06:44:00;;;;;;;53.15;24.60;;;;;;;;;;4808267;29;34257;-69
2022/01/05 06:46:28;;;;;;;49.40;23.70;;;;;;;;;;4808363;29;32604;-69
2022/01/05 06:48:56;;;;;;;54.35;25.45;;;;;;;;;;4807598;29;32491;-68
2022/01/05 06:51:24;;;;;;;49.90;24.70;;;;;;;;;;4808680;29;32602;-68
2022/01/05 06:53:52;;;;;;;57.33;25.45;;;;;;;;;;4807324;29;35237;-70
2022/01/05 06:56:22;;;;;;;56.50;26.13;;;;;;;;;;4801098;29;32494;-68
2022/01/05 06:58:50;;;;;;;55.50;26.83;;;;;;;;;;4807056;29;32559;-69
2022/01/05 07:01:18;;;;;;;47.95;25.67;;;;;;;;;;4807970;29;32862;-68
2022/01/05 07:03:46;;;;;;;57.03;24.67;;;;;;;;;;4807401;29;32444;-68
2022/01/05 07:06:14;;;;;;;50.90;25.85;;;;;;;;;;4807711;29;34830;-68
2022/01/05 07:08:42;;;;;;;56.88;27.67;;;;;;;;;;4805610;29;32980;-69
2022/01/05 07:11:10;;;;;;;51.70;25.77;;;;;;;;;;4807358;29;32603;-70
2022/01/05 07:13:40;;;;;;;56.75;27.17;;;;;;;;;;4806073;29;32488;-69
2022/01/05 07:16:08;;;;;;;56.15;27.30;;;;;;;;;;4806721;29;34335;-68
2022/01/05 07:18:36;;;;;;;53.80;26.65;;;;;;;;;;4807508;29;32480;-69
2022/01/05 07:21:04;;;;;;;48.75;27.02;;;;;;;;;;4806104;29;32561;-67
2022/01/05 07:23:32;;;;;;;57.13;26.77;;;;;;;;;;4347667;29;32907;-67
2022/01/05 07:26:00;;;;;;;46.13;25.58;;;;;;;;;;4822596;29;32436;-68
2022/01/05 07:28:28;;;;;;;58.42;28.88;;;;;;;;;;4825990;29;34068;-67
2022/01/05 07:30:57;;;;;;;48.13;26.48;;;;;;;;;;4823699;29;32336;-69
2022/01/05 07:33:26;;;;;;;55.22;28.00;;;;;;;;;;4826711;29;32494;-68
2022/01/05 07:35:54;;;;;;;62.03;28.98;;;;;;;;;;4825569;29;32679;-68
2022/01/05 07:38:22;;;;;;;56.92;28.58;;;;;;;;;;4825057;29;35279;-67
2022/01/05 07:40:50;;;;;;;57.78;28.27;;;;;;;;;;4825162;29;32399;-68
2022/01/05 07:43:19;;;;;;;57.65;28.85;;;;;;;;;;4825532;29;32436;-68
2022/01/05 07:45:47;;;;;;;60.20;29.42;;;;;;;;;;4825614;29;32590;-69
2022/01/05 07:48:16;;;;;;;61.83;29.63;;;;;;;;;;4825934;29;32647;-70
2022/01/05 07:50:44;;;;;;;57.67;29.08;;;;;;;;;;4824848;29;34546;-69
2022/01/05 07:53:13;;;;;;;63.95;30.17;;;;;;;;;;4825490;29;32737;-68
2022/01/05 07:55:41;;;;;;;64.20;30.60;;;;;;;;;;4826252;29;32454;-68
2022/01/05 07:58:10;;;;;;;69.55;33.03;;;;;;;;;;4825762;29;32577;-73
2022/01/05 08:00:39;;;;;;;64.47;31.48;;;;;;;;;;4824642;29;34858;-73
2022/01/05 08:03:08;;;;;;;67.03;31.70;;;;;;;;;;4825744;29;32615;-71
2022/01/05 08:05:38;;;;;;;76.75;34.15;;;;;;;;;;4823937;29;33093;-75
2022/01/05 08:08:06;;;;;;;69.88;33.58;;;;;;;;;;4825720;29;32521;-75
2022/01/05 08:10:34;;;;;;;71.97;35.80;;;;;;;;;;4823277;29;32492;-70
2022/01/05 08:13:02;;;;;;;72.03;35.92;;;;;;;;;;4825252;29;34002;-69
2022/01/05 08:15:31;;;;;;;74.05;36.97;;;;;;;;;;4808400;29;32864;-70
2022/01/05 08:17:59;;;;;;;70.43;35.15;;;;;;;;;;4825956;29;32463;-69
2022/01/05 08:20:28;;;;;;;77.65;38.42;;;;;;;;;;4825215;29;32987;-71
2022/01/05 08:22:57;;;;;;;71.38;34.88;;;;;;;;;;4822661;29;35417;-69
2022/01/05 08:25:25;;;;;;;71.45;36.35;;;;;;;;;;4824373;29;32512;-70
2022/01/05 08:27:54;;;;;;;73.63;39.25;;;;;;;;;;4822369;29;32561;-69
2022/01/05 08:30:25;;;;;;;75.57;39.97;;;;;;;;;;4823968;29;32635;-71
2022/01/05 08:32:54;;;;;;;;;;;;;;;;;;4824425;29;32819;-69
2022/01/05 08:35:24;;;;;;;78.47;40.53;;;;;;;;;;4824771;29;32332;-70
2022/01/05 08:37:53;;;;;;;80.60;41.25;;;;;;;;;;4823007;29;32530;-70
2022/01/05 08:40:25;;;;;;;96.18;43.22;;;;;;;;;;4824217;29;32561;-69
2022/01/05 08:42:54;;;;;;;95.15;45.50;;;;;;;;;;4824568;29;33194;-68
2022/01/05 08:45:23;;;;;;;92.32;44.25;;;;;;;;;;4824438;29;35735;-73
2022/01/05 08:47:53;;;;;;;93.22;45.42;;;;;;;;;;4823923;29;32561;-69
2022/01/05 08:50:25;;;;;;;87.28;43.13;;;;;;;;;;4824191;29;32886;-68
2022/01/05 08:52:54;;;;;;;92.78;43.10;;;;;;;;;;4823391;29;32597;-69
2022/01/05 08:55:28;;;;;;;80.90;40.63;;;;;;;;;;4824407;29;32543;-70
2022/01/05 08:57:57;;;;;;;81.38;41.35;;;;;;;;;;4737867;29;32611;-72
2022/01/05 09:00:26;;;;;;;85.45;40.72;;;;;;;;;;4822525;29;32569;-72
2022/01/05 09:02:55;;;;;;;81.88;40.92;;;;;;;;;;4821448;29;32582;-71
2022/01/05 09:05:23;;;;;;;83.18;39.35;;;;;;;;;;4822554;29;32831;-71
2022/01/05 09:07:52;;;;;;;76.50;37.80;;;;;;;;;;4821870;29;34627;-74
2022/01/05 09:10:20;;;;;;;70.80;36.85;;;;;;;;;;4822678;29;32713;-71
2022/01/05 09:12:50;;;;;;;73.45;35.95;;;;;;;;;;4822231;29;32764;-72
2022/01/05 09:15:18;;;;;;;67.60;35.08;;;;;;;;;;4822389;29;32639;-70
2022/01/05 09:17:47;;;;;;;71.70;36.30;;;;;;;;;;4809481;29;32663;-72
2022/01/05 09:20:15;;;;;;;70.20;33.95;;;;;;;;;;4824263;29;33046;-74
2022/01/05 09:22:43;;;;;;;79.00;33.55;;;;;;;;;;4826320;29;32480;-72
2022/01/05 09:25:14;;;;;;;73.95;35.25;;;;;;;;;;4825923;29;32805;-74
2022/01/05 09:27:42;;;;;;;66.63;33.80;;;;;;;;;;4826062;29;32569;-70
2022/01/05 09:30:14;;;;;;;65.72;32.35;;;;;;;;;;4826098;29;34539;-72
2022/01/05 09:32:43;;;;;;;62.97;30.60;;;;;;;;;;4826703;29;32801;-74
2022/01/05 09:35:14;;;;;;;59.55;30.85;;;;;;;;;;4826149;29;33613;-72
2022/01/05 09:37:52;;;;;;;57.03;28.77;;;;;;;;;;4824424;29;32631;-73
2022/01/05 09:43:08;;;;;;;51.15;26.45;;;;;;;;;;4826490;29;32721;-71
2022/01/05 09:45:39;;;;;;;51.92;24.23;;;;;;;;;;4826223;29;32953;-72
2022/01/05 09:48:45;;;;;;;38.75;22.00;;;;;;;;;;4810260;29;32502;-70
2022/01/05 09:51:19;;;;;;;39.83;22.88;;;;;;;;;;4796862;29;32564;-70
2022/01/05 09:53:48;;;;;;;38.50;22.35;;;;;;;;;;4825449;29;35030;-71
2022/01/05 09:56:16;;;;;;;31.52;20.55;;;;;;;;;;4827864;29;32479;-73
2022/01/05 09:58:45;;;;;;;34.17;20.60;;;;;;;;;;4826612;29;32505;-70
2022/01/05 10:01:14;;;;;;;38.13;20.65;;;;;;;;;;4825194;29;32498;-69
2022/01/05 10:03:42;;;;;;;39.33;21.10;;;;;;;;;;4826635;29;32784;-69
2022/01/05 10:06:13;;;;;;;39.03;21.60;;;;;;;;;;4705714;29;32826;-70
2022/01/05 10:08:41;;;;;;;41.15;20.88;;;;;;;;;;4823889;29;32728;-69
2022/01/05 10:11:11;;;;;;;35.60;20.35;;;;;;;;;;4828683;29;32920;-71
2022/01/05 10:13:39;;;;;;;38.08;20.13;;;;;;;;;;4823455;29;32515;-69
2022/01/05 10:16:08;;;;;;;41.55;21.88;;;;;;;;;;4825853;29;35742;-70
2022/01/05 10:18:43;;;;;;;43.08;22.00;;;;;;;;;;4825309;29;32518;-72
2022/01/05 10:21:14;;;;;;;41.35;21.50;;;;;;;;;;4810494;29;32560;-73
2022/01/05 10:23:48;;;;;;;32.88;21.27;;;;;;;;;;4825966;29;33086;-71
2022/01/05 10:26:26;;;;;;;38.40;20.98;;;;;;;;;;4827034;29;32458;-70
2022/01/05 10:28:57;;;;;;;39.03;21.02;;;;;;;;;;4825560;29;32507;-71
2022/01/05 10:31:28;;;;;;;38.00;20.00;;;;;;;;;;4827083;29;32605;-74
2022/01/05 10:33:59;;;;;;;39.03;20.63;;;;;;;;;;4827021;29;32588;-74
2022/01/05 10:36:45;;;;;;;34.70;19.63;;;;;;;;;;4809097;29;32565;-73
2022/01/05 10:39:14;;;;;;;35.25;19.48;;;;;;;;;;4826762;29;34247;-73
2022/01/05 10:41:44;;;;;;;38.15;19.55;;;;;;;;;;4824085;29;34338;-74
2022/01/05 10:44:19;;;;;;;36.25;19.13;;;;;;;;;;4826396;29;31846;-70
2022/01/05 10:46:50;;;;;;;31.50;17.75;;;;;;;;;;4826801;29;32548;-71
2022/01/05 10:49:29;;;;;;;29.70;19.60;;;;;;;;;;4811186;29;35838;-70
2022/01/05 10:52:00;;;;;;;32.25;18.67;;;;;;;;;;4631897;29;32405;-69
2022/01/05 10:54:31;;;;;;;28.60;17.90;;;;;;;;;;4772755;29;42418;-69
2022/01/05 10:57:10;;;;;;;26.15;17.77;;;;;;;;;;4824984;29;32499;-71
2022/01/05 10:59:42;;;;;;;30.85;18.63;;;;;;;;;;4824682;29;32414;-69
2022/01/05 11:02:30;;;;;;;30.02;17.15;;;;;;;;;;4828961;29;35017;-71
2022/01/05 11:05:15;;;;;;;34.20;18.42;;;;;;;;;;4824390;29;33430;-70
2022/01/05 11:07:47;;;;;;;24.70;16.52;;;;;;;;;;4824607;29;32440;-75
2022/01/05 11:10:18;;;;;;;37.50;19.13;;;;;;;;;;4825258;29;32978;-73
2022/01/05 11:12:51;;;;;;;34.40;18.75;;;;;;;;;;4826144;29;34088;-73
2022/01/05 11:15:30;;;;;;;28.50;17.40;;;;;;;;;;4825000;29;32504;-77
2022/01/05 11:18:18;;;;;;;28.00;17.85;;;;;;;;;;4824816;29;32541;-73
2022/01/05 11:20:52;;;;;;;34.13;18.00;;;;;;;;;;4825562;29;32504;-75
2022/01/05 11:23:21;;;;;;;31.60;17.60;;;;;;;;;;4825922;29;32759;-73
2022/01/05 11:25:50;;;;;;;25.88;16.92;;;;;;;;;;4824648;29;34841;-74
2022/01/05 11:28:20;;;;;;;29.77;17.27;;;;;;;;;;4826211;29;32892;-72
2022/01/05 11:30:51;;;;;;;27.83;16.13;;;;;;;;;;4823155;29;32535;-73
2022/01/05 11:33:20;;;;;;;27.45;17.05;;;;;;;;;;4825394;29;31961;-73
2022/01/05 11:35:50;;;;;;;28.98;16.90;;;;;;;;;;4824178;29;36167;-72
2022/01/05 11:38:19;;;;;;;24.33;14.85;;;;;;;;;;4825196;29;32379;-73
2022/01/05 11:40:52;;;;;;;26.38;16.08;;;;;;;;;;4825357;29;32512;-71
2022/01/05 11:43:25;;;;;;;28.33;16.38;;;;;;;;;;4826444;29;32870;-72
2022/01/05 11:45:54;;;;;;;22.52;15.02;;;;;;;;;;4807081;29;32542;-74
2022/01/05 11:48:28;;;;;;;30.80;16.55;;;;;;;;;;4826457;29;34139;-72
2022/01/05 11:51:00;;;;;;;24.48;15.00;;;;;;;;;;4817093;29;32493;-72
2022/01/05 11:53:44;;;;;;;22.80;14.85;;;;;;;;;;4827232;29;32408;-70
2022/01/05 11:56:18;;;;;;;25.45;16.00;;;;;;;;;;4826038;29;32591;-70
2022/01/05 11:58:58;;;;;;;18.85;14.98;;;;;;;;;;4825492;29;34256;-69
2022/01/05 12:01:35;;;;;;;23.08;15.20;;;;;;;;;;4827985;29;32525;-74
2022/01/05 12:04:19;;;;;;;22.27;13.88;;;;;;;;;;4824461;29;32527;-71
2022/01/05 12:07:15;;;;;;;22.90;15.35;;;;;;;;;;4826164;29;32577;-73
2022/01/05 12:09:53;;;;;;;29.25;15.95;;;;;;;;;;4827261;29;32876;-75
2022/01/05 12:12:31;;;;;;;23.13;14.57;;;;;;;;;;4821836;29;35156;-73
2022/01/05 12:15:01;;;;;;;23.23;15.27;;;;;;;;;;4823336;29;32481;-73
2022/01/05 12:17:29;;;;;;;26.38;15.20;;;;;;;;;;4506982;29;32768;-73
2022/01/05 12:20:14;;;;;;;18.33;13.75;;;;;;;;;;4832649;29;31913;-74
2022/01/05 12:22:44;;;;;;;17.00;13.52;;;;;;;;;;4824800;29;34052;-73
2022/01/05 12:25:23;;;;;;;27.60;14.40;;;;;;;;;;4825616;29;32051;-75
2022/01/05 12:28:05;;;;;;;21.20;13.70;;;;;;;;;;4827127;29;32597;-76
2022/01/05 12:30:43;;;;;;;22.35;12.52;;;;;;;;;;4820273;29;33160;-76
2022/01/05 12:33:18;;;;;;;18.60;12.90;;;;;;;;;;4807219;29;32454;-75
2022/01/05 12:35:51;;;;;;;20.83;12.60;;;;;;;;;;4824348;29;35591;-75
2022/01/05 12:38:54;;;;;;;17.27;12.35;;;;;;;;;;4799761;29;32804;-73
2022/01/05 12:41:33;;;;;;;18.08;12.57;;;;;;;;;;4823957;29;32924;-72
2022/01/05 12:44:07;;;;;;;13.50;11.20;;;;;;;;;;4823952;29;32487;-75
2022/01/05 12:46:39;;;;;;;15.20;11.23;;;;;;;;;;4824454;29;35302;-72
2022/01/05 12:49:12;;;;;;;13.73;11.15;;;;;;;;;;4824681;29;32918;-73
2022/01/05 12:51:46;;;;;;;21.00;11.40;;;;;;;;;;4808199;29;32558;-73
2022/01/05 12:54:20;;;;;;;13.05;10.02;;;;;;;;;;4827617;29;32387;-74
2022/01/05 12:56:52;;;;;;;17.80;10.77;;;;;;;;;;4827322;29;32230;-73
2022/01/05 12:59:28;;;;;;;10.82;9.57;;;;;;;;;;4827504;29;34027;-72
2022/01/05 13:02:01;;;;;;;19.80;10.68;;;;;;;;;;4826179;29;32783;-76
2022/01/05 13:04:30;;;;;;;11.35;10.10;;;;;;;;;;4826689;29;32559;-77
2022/01/05 13:07:02;;;;;;;11.93;9.15;;;;;;;;;;4812072;29;32991;-75
2022/01/05 13:09:36;;;;;;;14.20;9.50;;;;;;;;;;4825639;29;35014;-73
2022/01/05 13:12:07;;;;;;;11.40;8.40;;;;;;;;;;4825839;29;32361;-74
2022/01/05 13:14:37;;;;;;;15.07;9.18;;;;;;;;;;4826316;29;32629;-73
2022/01/05 13:17:09;;;;;;;10.00;8.40;;;;;;;;;;4826814;29;32577;-74
2022/01/05 13:19:42;;;;;;;9.70;8.60;;;;;;;;;;4825697;29;32767;-70
2022/01/05 13:22:16;;;;;;;10.95;8.52;;;;;;;;;;4826194;29;34839;-74
2022/01/05 13:25:06;;;;;;;11.40;8.80;;;;;;;;;;4826709;29;32893;-71
2022/01/05 13:27:37;;;;;;;13.85;8.40;;;;;;;;;;4827520;29;32788;-70
2022/01/05 13:30:09;;;;;;;13.90;9.20;;;;;;;;;;4827645;29;32669;-74
2022/01/05 13:32:39;;;;;;;14.00;8.73;;;;;;;;;;4826922;29;34071;-73
2022/01/05 13:35:12;;;;;;;10.38;8.38;;;;;;;;;;4824808;29;32634;-73
2022/01/05 13:37:42;;;;;;;9.52;8.05;;;;;;;;;;4826026;29;32403;-70
2022/01/05 13:40:16;;;;;;;13.17;8.70;;;;;;;;;;4823547;29;33647;-70
2022/01/05 13:42:48;;;;;;;12.00;9.00;;;;;;;;;;4825732;29;32285;-68
2022/01/05 13:45:22;;;;;;;11.68;8.88;;;;;;;;;;4827046;29;34509;-69
2022/01/05 13:47:56;;;;;;;16.10;9.55;;;;;;;;;;4825138;29;32649;-69
2022/01/05 13:50:27;;;;;;;18.20;9.25;;;;;;;;;;4826229;29;32714;-71
2022/01/05 13:53:01;;;;;;;12.00;9.27;;;;;;;;;;4710407;29;32498;-71
2022/01/05 13:55:37;;;;;;;14.05;9.27;;;;;;;;;;4819286;29;34841;-71
2022/01/05 13:58:17;;;;;;;13.45;9.93;;;;;;;;;;4807110;29;32507;-71
2022/01/05 14:00:49;;;;;;;17.35;10.63;;;;;;;;;;4804942;29;32495;-71
2022/01/05 14:03:33;;;;;;;17.55;11.30;;;;;;;;;;4806379;29;32754;-72
2022/01/05 14:06:03;;;;;;;17.58;10.23;;;;;;;;;;4809314;29;32783;-71
2022/01/05 14:08:35;;;;;;;15.73;10.32;;;;;;;;;;4806602;29;34519;-72
2022/01/05 14:11:11;;;;;;;19.33;11.02;;;;;;;;;;4810560;29;32545;-70
2022/01/05 14:13:45;;;;;;;11.70;10.25;;;;;;;;;;4808023;29;32483;-69
2022/01/05 14:16:15;;;;;;;16.73;12.30;;;;;;;;;;4809337;29;32480;-69
2022/01/05 14:18:48;;;;;;;16.15;11.20;;;;;;;;;;4807047;29;34068;-70
2022/01/05 14:21:27;;;;;;;16.60;10.60;;;;;;;;;;4807271;29;32577;-71
2022/01/05 14:23:55;;;;;;;14.38;11.40;;;;;;;;;;4807996;29;32441;-71
2022/01/05 14:26:27;;;;;;;16.75;10.95;;;;;;;;;;4808046;29;32566;-72
2022/01/05 14:28:59;;;;;;;16.23;10.80;;;;;;;;;;4813615;23;32671;-73
2022/01/05 14:31:35;;;;;;;16.15;11.35;;;;;;;;;;4688001;29;34169;-71
2022/01/05 14:34:04;;;;;;;16.17;11.07;;;;;;;;;;4805679;29;32458;-72
2022/01/05 14:36:38;;;;;;;23.00;11.60;;;;;;;;;;4809508;29;32651;-72
2022/01/05 14:39:09;;;;;;;18.98;11.38;;;;;;;;;;4807535;29;32498;-71